Time;durP1;ratioP1;P1;durP2;ratioP2;P2;SDS_P1;SDS_P2;PMS_P1;PMS_P2;Temp;Humidity;BMP_temperature;BMP_pressure;BME280_temperature;BME280_humidity;BME280_pressure;Samples;Min_cycle;Max_cycle;Signal;HPM_P1;HPM_P2
2021/03/21 00:00:26;;;;;;;0.40;0.30;;;;;;;4.53;61.00;101164.38;5073243;28;20473;-64
2021/03/21 00:02:52;;;;;;;0.40;0.30;;;;;;;4.52;61.53;101176.19;5073310;28;20424;-65
2021/03/21 00:05:18;;;;;;;0.50;0.40;;;;;;;4.55;61.10;101162.25;5073104;28;20468;-64
2021/03/21 00:07:44;;;;;;;0.40;0.30;;;;;;;4.55;61.70;101172.19;5073373;28;20464;-63
2021/03/21 00:10:12;;;;;;;1.00;0.90;;;;;;;4.46;61.93;101171.78;5073110;28;20975;-64
2021/03/21 00:12:38;;;;;;;0.50;0.50;;;;;;;4.49;62.59;101167.81;5073121;28;20857;-64
2021/03/21 00:15:06;;;;;;;4.40;1.73;;;;;;;4.44;63.83;101162.38;5073138;28;20494;-64
2021/03/21 00:17:32;;;;;;;0.57;0.40;;;;;;;4.49;64.04;101151.72;5073237;28;20495;-64
2021/03/21 00:19:58;;;;;;;0.80;0.70;;;;;;;4.55;64.24;101153.41;5073005;28;20461;-64
2021/03/21 00:22:24;;;;;;;0.40;0.30;;;;;;;4.60;64.40;101147.28;5073051;28;20464;-64
2021/03/21 00:24:50;;;;;;;1.53;0.90;;;;;;;4.55;65.70;101142.66;5072973;28;20934;-64
2021/03/21 00:27:17;;;;;;;0.70;0.70;;;;;;;4.47;66.04;101145.78;5072893;28;20481;-63
2021/03/21 00:29:44;;;;;;;1.43;1.30;;;;;;;4.54;66.19;101141.88;5072962;28;20457;-63
2021/03/21 00:32:10;;;;;;;0.83;0.63;;;;;;;4.63;66.86;101134.22;5073251;28;20442;-63
2021/03/21 00:34:36;;;;;;;1.00;0.77;;;;;;;4.61;67.52;101130.16;5072970;28;20445;-64
2021/03/21 00:37:02;;;;;;;1.03;0.93;;;;;;;4.57;68.95;101124.47;5072911;28;20789;-64
2021/03/21 00:39:28;;;;;;;3.57;2.97;;;;;;;4.55;71.01;101122.03;5072905;28;20469;-63
2021/03/21 00:41:54;;;;;;;0.97;0.87;;;;;;;4.51;71.68;101110.16;5075354;28;20453;-64
2021/03/21 00:44:21;;;;;;;1.83;1.73;;;;;;;4.51;73.03;101106.66;5077290;28;20437;-64
2021/03/21 00:46:47;;;;;;;1.67;0.77;;;;;;;4.42;74.69;101100.09;5076659;28;20485;-64
2021/03/21 00:49:13;;;;;;;0.50;0.40;;;;;;;4.41;74.78;101090.44;5076776;28;20802;-64
2021/03/21 00:51:39;;;;;;;0.50;0.50;;;;;;;4.41;75.59;101093.94;5076335;28;20445;-65
2021/03/21 00:54:05;;;;;;;1.23;0.93;;;;;;;4.43;75.86;101083.78;5076460;28;20444;-63
2021/03/21 00:56:34;;;;;;;0.40;0.30;;;;;;;4.41;76.29;101079.72;5075829;28;20437;-64
2021/03/21 00:59:00;;;;;;;0.63;0.63;;;;;;;4.42;76.59;101084.81;5036440;28;20493;-64
2021/03/21 01:01:28;;;;;;;1.07;0.60;;;;;;;4.40;77.27;101080.78;5036368;28;20467;-63
2021/03/21 01:03:54;;;;;;;1.17;0.67;;;;;;;4.33;78.61;101067.53;5036205;28;20986;-63
2021/03/21 01:06:20;;;;;;;0.70;0.70;;;;;;;4.36;79.23;101052.84;5036330;28;20486;-64
2021/03/21 01:08:46;;;;;;;0.77;0.43;;;;;;;4.29;80.53;101064.56;5036272;28;20446;-63
2021/03/21 01:11:15;;;;;;;0.80;0.80;;;;;;;4.29;81.09;101053.84;5036260;28;20486;-64
2021/03/21 01:13:42;;;;;;;0.50;0.33;;;;;;;4.31;81.89;101061.63;5035947;28;20480;-64
2021/03/21 01:16:13;;;;;;;0.90;0.90;;;;;;;4.25;83.09;101055.38;5036265;28;20447;-64
2021/03/21 01:18:40;;;;;;;1.27;1.13;;;;;;;4.21;84.67;101048.09;5036416;28;20453;-63
2021/03/21 01:21:11;;;;;;;2.80;1.17;;;;;;;4.13;85.80;101049.31;5035995;28;20467;-64
2021/03/21 01:23:36;;;;;;;0.60;0.60;;;;;;;4.01;87.24;101037.88;5036143;28;20462;-64
2021/03/21 01:26:03;;;;;;;0.40;0.30;;;;;;;3.99;87.71;101035.44;5035898;28;20487;-63
2021/03/21 01:28:31;;;;;;;1.23;0.80;;;;;;;4.00;87.85;101033.56;5035931;28;20443;-64
2021/03/21 01:31:00;;;;;;;1.80;0.83;;;;;;;3.94;88.53;101023.81;5035466;28;20463;-64
2021/03/21 01:33:27;;;;;;;0.90;0.77;;;;;;;3.95;88.33;101022.78;5035498;28;20788;-64
2021/03/21 01:35:54;;;;;;;2.80;1.90;;;;;;;3.92;88.97;101016.03;5035681;28;20450;-63
2021/03/21 01:38:22;;;;;;;0.40;0.40;;;;;;;3.90;89.42;101006.63;5035874;28;20449;-64
2021/03/21 01:40:49;;;;;;;0.40;0.30;;;;;;;3.91;90.34;101005.56;5035866;28;20466;-64
2021/03/21 01:43:17;;;;;;;1.70;1.27;;;;;;;3.83;91.88;100997.94;5035793;28;20447;-65
2021/03/21 01:45:45;;;;;;;0.50;0.50;;;;;;;3.79;92.92;100995.75;5035637;28;20439;-64
2021/03/21 01:48:18;;;;;;;0.60;0.40;;;;;;;3.83;92.88;100992.59;5035334;28;20472;-65
2021/03/21 01:50:48;;;;;;;0.40;0.30;;;;;;;3.87;93.28;100978.47;5035404;28;20984;-64
2021/03/21 01:53:21;;;;;;;1.00;0.90;;;;;;;3.82;94.12;100980.25;5034775;28;20416;-64
2021/03/21 01:55:48;;;;;;;0.80;0.53;;;;;;;3.84;94.84;100965.53;5035734;28;20499;-65
2021/03/21 01:58:16;;;;;;;0.73;0.73;;;;;;;3.82;96.06;100966.88;5046014;28;20460;-65
2021/03/21 02:00:42;;;;;;;1.13;0.80;;;;;;;3.79;96.40;100960.13;5055173;28;20488;-64
2021/03/21 02:03:08;;;;;;;9.40;1.87;;;;;;;3.83;97.45;100947.03;5055519;28;20443;-64
2021/03/21 02:05:37;;;;;;;2.70;2.47;;;;;;;3.82;98.48;100951.59;5055270;28;20449;-63
2021/03/21 02:08:20;;;;;;;0.83;0.47;;;;;;;3.82;98.62;100943.56;5055512;28;20438;-64
2021/03/21 02:10:55;;;;;;;9.83;1.23;;;;;;;3.80;99.55;100942.97;5055241;28;20515;-64
2021/03/21 02:13:25;;;;;;;1.07;0.97;;;;;;;3.75;100.00;100926.84;5055309;28;20429;-64
2021/03/21 02:15:59;;;;;;;1.80;1.07;;;;;;;3.79;100.00;100928.78;5055160;28;20445;-65
2021/03/21 02:18:30;;;;;;;0.60;0.40;;;;;;;3.74;100.00;100930.59;5055357;28;20430;-65
2021/03/21 02:21:16;;;;;;;1.00;0.90;;;;;;;3.73;100.00;100924.41;5054865;28;20983;-64
2021/03/21 02:24:04;;;;;;;0.40;0.30;;;;;;;3.73;100.00;100916.38;5055142;28;20842;-64
2021/03/21 02:26:48;;;;;;;0.40;0.33;;;;;;;3.80;100.00;100913.50;5054994;28;20462;-65
2021/03/21 02:29:24;;;;;;;0.80;0.80;;;;;;;3.80;100.00;100900.91;5054895;28;20426;-65
2021/03/21 02:31:55;;;;;;;0.60;0.60;;;;;;;3.80;100.00;100895.56;5054908;28;20434;-64
2021/03/21 02:34:26;;;;;;;1.23;1.17;;;;;;;3.80;100.00;100900.91;5054926;28;20434;-65
2021/03/21 02:36:56;;;;;;;0.40;0.30;;;;;;;3.80;100.00;100890.19;5054652;28;20900;-65
2021/03/21 02:39:27;;;;;;;4.00;1.13;;;;;;;3.84;100.00;100889.72;5054637;28;20457;-65
2021/03/21 02:42:00;;;;;;;1.37;0.77;;;;;;;3.86;100.00;100876.91;5054815;28;20425;-65
2021/03/21 02:44:31;;;;;;;0.70;0.70;;;;;;;3.89;100.00;100876.38;5054750;28;20430;-65
2021/03/21 02:47:00;;;;;;;4.10;0.53;;;;;;;3.89;100.00;100871.81;5054381;28;20470;-65
2021/03/21 02:49:30;;;;;;;0.40;0.30;;;;;;;3.87;100.00;100873.16;5054598;28;20463;-65
2021/03/21 02:52:02;;;;;;;0.93;0.80;;;;;;;3.91;100.00;100866.25;5054582;28;20450;-65
2021/03/21 02:54:31;;;;;;;1.53;1.20;;;;;;;3.91;100.00;100861.69;5054563;28;20430;-65
2021/03/21 02:57:02;;;;;;;0.50;0.40;;;;;;;3.89;100.00;100860.31;5054608;28;20434;-64
2021/03/21 02:59:34;;;;;;;0.93;0.93;;;;;;;3.88;100.00;100854.13;5054357;28;20469;-65
2021/03/21 03:02:04;;;;;;;0.50;0.50;;;;;;;3.87;100.00;100849.84;5054369;28;20422;-65
2021/03/21 03:04:36;;;;;;;6.43;1.40;;;;;;;3.87;100.00;100852.53;5054573;28;20465;-65
2021/03/21 03:07:08;;;;;;;2.50;0.90;;;;;;;3.93;100.00;100850.72;5054322;28;20462;-65
2021/03/21 03:09:40;;;;;;;0.60;0.40;;;;;;;3.99;100.00;100844.38;5054207;28;20462;-65
2021/03/21 03:12:11;;;;;;;1.40;1.10;;;;;;;4.03;100.00;100832.09;5054201;28;20434;-65
2021/03/21 03:14:40;;;;;;;0.40;0.27;;;;;;;4.01;100.00;100823.47;5054222;28;20488;-65
2021/03/21 03:17:15;;;;;;;0.90;0.40;;;;;;;4.04;100.00;100818.41;5054064;28;20451;-64
2021/03/21 03:19:49;;;;;;;0.40;0.30;;;;;;;4.07;100.00;100818.97;5053716;28;20970;-65
2021/03/21 03:22:21;;;;;;;0.50;0.40;;;;;;;4.04;100.00;100815.75;5053960;28;20427;-65
2021/03/21 03:24:58;;;;;;;0.70;0.63;;;;;;;4.07;100.00;100814.41;5054016;28;20435;-65
2021/03/21 03:27:42;;;;;;;1.37;1.27;;;;;;;4.12;100.00;100806.44;5053946;28;20470;-64
2021/03/21 03:30:13;;;;;;;3.83;2.33;;;;;;;4.14;100.00;100806.19;5053913;28;20475;-65
2021/03/21 03:32:39;;;;;;;0.40;0.30;;;;;;;4.17;100.00;100809.19;5053855;28;20440;-65
2021/03/21 03:35:19;;;;;;;1.13;0.93;;;;;;;4.16;100.00;100804.88;5053742;28;20940;-64
2021/03/21 03:37:45;;;;;;;0.60;0.40;;;;;;;4.23;100.00;100793.94;5053790;28;20419;-64
2021/03/21 03:40:26;;;;;;;0.40;0.30;;;;;;;4.23;100.00;100788.59;5053390;28;21052;-65
2021/03/21 03:43:07;;;;;;;3.03;2.83;;;;;;;4.25;100.00;100781.91;5053503;28;20423;-65
2021/03/21 03:45:41;;;;;;;1.00;0.60;;;;;;;4.28;100.00;100784.06;5053595;28;20488;-65
2021/03/21 03:48:19;;;;;;;1.13;1.03;;;;;;;4.35;100.00;100773.16;5053256;28;20449;-65
2021/03/21 03:50:53;;;;;;;0.50;0.40;;;;;;;4.39;100.00;100773.47;5053557;28;20870;-64
2021/03/21 03:53:36;;;;;;;0.50;0.40;;;;;;;4.37;100.00;100764.84;5053663;28;20433;-62
2021/03/21 03:56:09;;;;;;;0.40;0.30;;;;;;;4.40;100.00;100758.97;5053432;28;20418;-62
2021/03/21 03:58:46;;;;;;;0.80;0.80;;;;;;;4.44;100.00;100757.41;5053421;28;20453;-62
2021/03/21 04:01:15;;;;;;;0.67;0.50;;;;;;;4.46;100.00;100745.34;5053474;28;20461;-64
2021/03/21 04:03:46;;;;;;;1.43;0.70;;;;;;;4.49;100.00;100746.72;5053329;28;20430;-65
2021/03/21 04:06:18;;;;;;;3.23;3.00;;;;;;;4.50;100.00;100732.22;5053224;28;20458;-65
2021/03/21 04:08:48;;;;;;;0.70;0.60;;;;;;;4.51;100.00;100733.84;5053250;28;20426;-65
2021/03/21 04:11:21;;;;;;;1.50;0.97;;;;;;;4.52;100.00;100732.81;5053240;28;20468;-65
2021/03/21 04:13:54;;;;;;;0.40;0.30;;;;;;;4.56;100.00;100725.84;5053405;28;20816;-66
2021/03/21 04:16:25;;;;;;;2.00;0.87;;;;;;;4.55;100.00;100718.84;5052884;28;20480;-65
2021/03/21 04:18:58;;;;;;;0.93;0.80;;;;;;;4.54;100.00;100711.88;5053174;28;20439;-65
2021/03/21 04:21:30;;;;;;;1.13;0.77;;;;;;;4.57;100.00;100711.38;5052752;28;20852;-65
2021/03/21 04:24:03;;;;;;;1.67;1.57;;;;;;;4.59;100.00;100701.19;5053163;28;20423;-65
2021/03/21 04:26:37;;;;;;;3.77;0.90;;;;;;;4.58;100.00;100706.81;5052787;28;21013;-66
2021/03/21 04:29:09;;;;;;;0.40;0.30;;;;;;;4.64;100.00;100703.09;5053215;28;20442;-65
2021/03/21 04:31:40;;;;;;;2.83;0.73;;;;;;;4.66;100.00;100696.41;5052847;28;20979;-66
2021/03/21 04:34:08;;;;;;;0.73;0.40;;;;;;;4.69;100.00;100693.22;5053139;28;20426;-65
2021/03/21 04:36:38;;;;;;;1.03;1.03;;;;;;;4.72;100.00;100698.03;5053028;28;20446;-65
2021/03/21 04:39:10;;;;;;;0.60;0.50;;;;;;;4.72;100.00;100689.19;5053017;28;20449;-66
2021/03/21 04:41:41;;;;;;;0.40;0.20;;;;;;;4.74;100.00;100695.94;5079473;22;20493;-69
2021/03/21 04:44:13;;;;;;;0.40;0.30;;;;;;;4.74;100.00;100695.13;5052780;28;20464;-67
2021/03/21 04:46:45;;;;;;;1.23;0.40;;;;;;;4.70;100.00;100691.34;5052731;28;20528;-66
2021/03/21 04:49:12;;;;;;;0.77;0.60;;;;;;;4.75;100.00;100681.44;5052866;28;20422;-68
2021/03/21 04:51:41;;;;;;;0.40;0.30;;;;;;;4.72;100.00;100667.72;5052699;28;20520;-68
2021/03/21 04:54:16;;;;;;;0.40;0.30;;;;;;;4.75;100.00;100670.72;5052827;28;20442;-67
2021/03/21 04:56:47;;;;;;;0.70;0.40;;;;;;;4.80;100.00;100670.72;5052840;28;20837;-67
2021/03/21 04:59:19;;;;;;;0.40;0.30;;;;;;;4.77;100.00;100671.25;5052740;28;20434;-67
2021/03/21 05:01:57;;;;;;;0.73;0.40;;;;;;;4.82;100.00;100683.88;5052382;28;21026;-69
2021/03/21 05:04:26;;;;;;;0.40;0.30;;;;;;;4.81;100.00;100679.59;5052769;28;20433;-69
2021/03/21 05:06:58;;;;;;;0.70;0.50;;;;;;;4.79;100.00;100669.13;5052544;28;20489;-66
2021/03/21 05:09:28;;;;;;;0.40;0.30;;;;;;;4.82;100.00;100670.47;5052672;28;20468;-67
2021/03/21 05:11:57;;;;;;;0.40;0.20;;;;;;;4.88;100.00;100664.06;5052574;28;20465;-67
2021/03/21 05:14:29;;;;;;;0.67;0.40;;;;;;;4.90;100.00;100671.84;5052519;28;20503;-68
2021/03/21 05:17:03;;;;;;;0.40;0.30;;;;;;;4.90;100.00;100658.44;5052760;28;20802;-69
2021/03/21 05:19:40;;;;;;;3.13;1.13;;;;;;;4.89;100.00;100663.00;5052131;28;20450;-69
2021/03/21 05:22:14;;;;;;;1.33;0.50;;;;;;;4.88;100.00;100664.06;5052463;28;20407;-67
2021/03/21 05:24:46;;;;;;;0.40;0.30;;;;;;;4.94;100.00;100659.53;5052653;28;20800;-67
2021/03/21 05:27:17;;;;;;;0.70;0.40;;;;;;;4.98;100.00;100665.97;5052294;28;20504;-67
2021/03/21 05:29:51;;;;;;;0.53;0.53;;;;;;;4.97;100.00;100659.00;5056073;28;20769;-68
2021/03/21 05:32:20;;;;;;;0.40;0.30;;;;;;;4.99;100.00;100654.16;5055803;28;20462;-67
2021/03/21 05:34:48;;;;;;;0.40;0.30;;;;;;;5.04;100.00;100646.13;5055964;28;20453;-67
2021/03/21 05:37:24;;;;;;;0.40;0.20;;;;;;;5.05;100.00;100653.94;5055825;28;20466;-67
2021/03/21 05:39:58;;;;;;;0.60;0.30;;;;;;;5.05;100.00;100643.22;5055646;28;20431;-68
2021/03/21 05:42:57;;;;;;;0.40;0.30;;;;;;;5.07;100.00;100633.00;5056052;28;20453;-67
2021/03/21 05:45:48;;;;;;;0.80;0.40;;;;;;;5.07;100.00;100638.38;5055751;28;20433;-67
2021/03/21 05:48:35;;;;;;;0.40;0.40;;;;;;;5.13;100.00;100641.88;5055619;28;20470;-67
2021/03/21 05:51:42;;;;;;;0.73;0.30;;;;;;;5.14;100.00;100635.47;5055560;28;20473;-67
2021/03/21 05:54:50;;;;;;;1.20;0.40;;;;;;;5.14;100.00;100630.09;5055533;28;20427;-67
2021/03/21 05:57:49;;;;;;;0.40;0.40;;;;;;;5.18;100.00;100622.28;5056094;28;20468;-67
2021/03/21 06:00:36;;;;;;;0.40;0.30;;;;;;;5.16;100.00;100627.13;5056163;28;20489;-67
2021/03/21 06:03:30;;;;;;;0.50;0.50;;;;;;;5.19;100.00;100616.66;5055461;28;20834;-68
2021/03/21 06:06:49;;;;;;;0.63;0.40;;;;;;;5.25;100.00;100617.50;5055443;28;20476;-68
2021/03/21 06:09:26;;;;;;;0.40;0.27;;;;;;;5.21;100.00;100616.41;5055318;28;20430;-67
2021/03/21 06:12:15;;;;;;;0.40;0.30;;;;;;;5.26;100.00;100616.41;5055177;28;20469;-68
2021/03/21 06:15:24;;;;;;;0.87;0.60;;;;;;;5.28;100.00;100622.34;5055175;28;20796;-68
2021/03/21 06:18:19;;;;;;;1.17;1.07;;;;;;;5.36;100.00;100616.44;5055174;28;20425;-66
2021/03/21 06:21:29;;;;;;;0.40;0.30;;;;;;;5.42;100.00;100614.56;5054703;28;20836;-67
2021/03/21 06:24:34;;;;;;;0.40;0.20;;;;;;;5.44;100.00;100615.91;5037665;28;20453;-67
2021/03/21 06:27:11;;;;;;;0.40;0.30;;;;;;;5.45;100.00;100622.13;5051135;28;20489;-67
2021/03/21 06:30:04;;;;;;;0.40;0.30;;;;;;;5.46;100.00;100623.72;5054844;28;20483;-67
2021/03/21 06:32:52;;;;;;;0.70;0.50;;;;;;;5.43;100.00;100617.00;5024592;28;20936;-68
2021/03/21 06:35:43;;;;;;;0.40;0.20;;;;;;;5.45;100.00;100619.44;5054793;28;20434;-70
2021/03/21 06:38:30;;;;;;;0.40;0.30;;;;;;;5.47;100.00;100607.31;5054106;28;20916;-68
2021/03/21 06:41:12;;;;;;;0.60;0.53;;;;;;;5.49;100.00;100615.09;5054362;28;20520;-68
2021/03/21 06:44:04;;;;;;;0.80;0.40;;;;;;;5.54;100.00;100607.09;5054586;28;20484;-68
2021/03/21 06:47:06;;;;;;;0.50;0.50;;;;;;;5.55;100.00;100608.69;5054476;28;20836;-69
2021/03/21 06:49:44;;;;;;;0.40;0.30;;;;;;;5.55;100.00;100604.13;5050518;28;20599;-69
2021/03/21 06:52:24;;;;;;;0.40;0.30;;;;;;;5.57;100.00;100606.53;5054509;28;20438;-69
2021/03/21 06:54:55;;;;;;;0.40;0.20;;;;;;;5.54;100.00;100607.09;5054403;28;20472;-69
2021/03/21 06:58:10;;;;;;;10.13;0.80;;;;;;;5.55;100.00;100606.81;5054059;28;20916;-69
2021/03/21 07:00:52;;;;;;;0.40;0.30;;;;;;;5.56;100.00;100605.72;5054232;28;20501;-69
2021/03/21 07:04:01;;;;;;;0.50;0.40;;;;;;;5.56;100.00;100594.97;5054228;28;20422;-68
2021/03/21 07:07:22;;;;;;;0.40;0.20;;;;;;;5.55;100.00;100601.44;5053861;28;20463;-70
2021/03/21 07:10:03;;;;;;;0.40;0.30;;;;;;;5.62;100.00;100597.66;5054133;28;20423;-70
2021/03/21 07:13:10;;;;;;;0.40;0.30;;;;;;;5.66;100.00;100593.38;5054139;28;20454;-70
2021/03/21 07:16:00;;;;;;;0.50;0.43;;;;;;;5.67;100.00;100592.31;5020223;28;20446;-69
2021/03/21 07:19:08;;;;;;;0.40;0.30;;;;;;;5.68;100.00;100593.94;5054235;28;20423;-69
2021/03/21 07:22:24;;;;;;;0.40;0.30;;;;;;;5.70;100.00;100594.44;5053874;28;20481;-70
2021/03/21 07:25:23;;;;;;;0.73;0.73;;;;;;;5.73;100.00;100593.94;5053987;28;20438;-70
2021/03/21 07:28:02;;;;;;;0.60;0.40;;;;;;;5.73;100.00;100594.72;5053843;28;20473;-69
2021/03/21 07:30:41;;;;;;;0.40;0.30;;;;;;;5.76;100.00;100588.81;5053633;28;20955;-71
2021/03/21 07:33:33;;;;;;;0.40;0.30;;;;;;;5.82;100.00;100597.69;5053786;28;20484;-69
2021/03/21 07:36:26;;;;;;;0.40;0.20;;;;;;;5.90;100.00;100590.97;5053337;28;21020;-70
2021/03/21 07:39:19;;;;;;;0.40;0.30;;;;;;;5.94;100.00;100592.09;5054135;28;20457;-70
2021/03/21 07:42:02;;;;;;;0.40;0.20;;;;;;;5.96;100.00;100592.59;5053245;28;20482;-69
2021/03/21 07:44:51;;;;;;;0.40;0.37;;;;;;;5.95;100.00;100596.38;5053536;28;20430;-70
2021/03/21 07:47:48;;;;;;;2.77;0.53;;;;;;;5.96;100.00;100608.72;5053623;28;20466;-69
2021/03/21 07:50:32;;;;;;;0.40;0.20;;;;;;;5.98;100.00;100595.84;5052704;28;20469;-69
2021/03/21 07:53:06;;;;;;;2.40;2.10;;;;;;;6.00;100.00;100599.06;5053453;28;20415;-69
2021/03/21 07:55:37;;;;;;;0.50;0.33;;;;;;;6.04;100.00;100602.81;5053377;28;20456;-69
2021/03/21 07:58:09;;;;;;;0.40;0.30;;;;;;;6.06;100.00;100603.34;5053343;28;20425;-69
2021/03/21 08:00:35;;;;;;;0.50;0.50;;;;;;;6.06;100.00;100597.97;5052995;28;20466;-69
2021/03/21 08:03:24;;;;;;;0.63;0.50;;;;;;;6.15;100.00;100593.66;5052926;28;20449;-68
2021/03/21 08:05:53;;;;;;;0.40;0.30;;;;;;;6.12;100.00;100604.97;5053551;28;20442;-68
2021/03/21 08:08:23;;;;;;;0.40;0.30;;;;;;;6.10;100.00;100609.78;5053131;28;20528;-68
2021/03/21 08:10:52;;;;;;;0.50;0.50;;;;;;;6.14;100.00;100605.50;5053089;28;20458;-68
2021/03/21 08:13:25;;;;;;;0.40;0.30;;;;;;;6.16;100.00;100600.66;5052803;28;20943;-68
2021/03/21 08:15:52;;;;;;;0.40;0.30;;;;;;;6.18;100.00;100585.06;5052843;28;20918;-68
2021/03/21 08:18:22;;;;;;;0.40;0.20;;;;;;;6.14;100.00;100594.72;5053022;28;20452;-68
2021/03/21 08:20:50;;;;;;;0.40;0.30;;;;;;;6.12;100.00;100588.84;5052934;28;20484;-68
2021/03/21 08:23:22;;;;;;;0.40;0.30;;;;;;;6.16;100.00;100589.09;5053022;28;20442;-69
2021/03/21 08:25:50;;;;;;;0.40;0.20;;;;;;;6.16;100.00;100591.78;5052782;28;20900;-68
2021/03/21 08:28:22;;;;;;;0.40;0.30;;;;;;;6.19;100.00;100597.41;5052801;28;21055;-68
2021/03/21 08:30:51;;;;;;;0.40;0.30;;;;;;;6.21;100.00;100600.66;5052993;28;20498;-68
2021/03/21 08:33:29;;;;;;;0.40;0.27;;;;;;;6.22;100.00;100583.44;5052583;28;20944;-67
2021/03/21 08:36:16;;;;;;;0.50;0.40;;;;;;;6.28;100.00;100590.41;5052305;28;20457;-67
2021/03/21 08:38:57;;;;;;;0.40;0.30;;;;;;;6.43;100.00;100580.72;5052804;28;20810;-69
2021/03/21 08:41:25;;;;;;;1.17;0.33;;;;;;;6.51;100.00;100585.53;5045729;28;20471;-69
2021/03/21 08:43:59;;;;;;;0.40;0.30;;;;;;;6.47;100.00;100587.16;5035629;28;21021;-66
2021/03/21 08:46:26;;;;;;;0.40;0.30;;;;;;;6.46;100.00;100596.28;5052517;28;20433;-67
2021/03/21 08:49:02;;;;;;;0.40;0.30;;;;;;;6.40;100.00;100594.69;5052201;28;20450;-67
2021/03/21 08:51:36;;;;;;;0.73;0.30;;;;;;;6.44;100.00;100595.75;5051711;28;20839;-68
2021/03/21 08:54:13;;;;;;;0.60;0.60;;;;;;;6.52;100.00;100598.69;5051668;28;20441;-68
2021/03/21 08:56:41;;;;;;;0.60;0.60;;;;;;;6.55;100.00;100595.47;5052839;28;20453;-69
2021/03/21 08:59:21;;;;;;;1.17;0.97;;;;;;;6.49;100.00;100596.53;5052184;28;20446;-66
2021/03/21 09:01:57;;;;;;;0.50;0.40;;;;;;;6.46;100.00;100596.28;5053104;28;20473;-67
2021/03/21 09:04:25;;;;;;;1.43;1.33;;;;;;;6.34;100.00;100603.88;5056316;28;20430;-67
2021/03/21 09:06:52;;;;;;;1.43;0.70;;;;;;;6.36;100.00;100612.47;5056391;28;20474;-67
2021/03/21 09:09:24;;;;;;;0.40;0.30;;;;;;;6.39;100.00;100610.03;5055845;28;20979;-67
2021/03/21 09:11:53;;;;;;;0.40;0.30;;;;;;;6.36;100.00;100618.63;5056242;28;20465;-67
2021/03/21 09:14:26;;;;;;;1.00;1.00;;;;;;;6.42;100.00;100620.25;5055785;28;20954;-67
2021/03/21 09:16:55;;;;;;;0.83;0.83;;;;;;;6.37;100.00;100614.06;5056274;28;20423;-66
2021/03/21 09:19:24;;;;;;;0.40;0.30;;;;;;;6.40;100.00;100632.34;5036865;28;20443;-66
2021/03/21 09:21:50;;;;;;;0.40;0.30;;;;;;;6.36;100.00;100631.28;5051220;28;20520;-67
2021/03/21 09:24:18;;;;;;;0.40;0.30;;;;;;;6.30;100.00;100631.28;5056054;28;20445;-66
2021/03/21 09:26:46;;;;;;;1.37;1.00;;;;;;;6.30;100.00;100631.28;5055691;28;20482;-67
2021/03/21 09:29:24;;;;;;;0.40;0.30;;;;;;;6.40;100.00;100635.84;5055093;28;20477;-67
2021/03/21 09:31:53;;;;;;;0.40;0.30;;;;;;;6.47;100.00;100638.28;5055182;28;21005;-67
2021/03/21 09:34:27;;;;;;;0.40;0.30;;;;;;;6.47;100.00;100635.59;5051161;28;20447;-67
2021/03/21 09:36:59;;;;;;;0.67;0.60;;;;;;;6.47;100.00;100630.19;5055801;28;20422;-67
2021/03/21 09:39:28;;;;;;;0.60;0.40;;;;;;;6.57;100.00;100630.16;5055304;28;20439;-67
2021/03/21 09:41:56;;;;;;;1.93;0.80;;;;;;;6.68;100.00;100637.13;5036730;28;20486;-67
2021/03/21 09:44:32;;;;;;;0.87;0.70;;;;;;;6.73;99.82;100647.91;5055681;28;20442;-67
2021/03/21 09:47:12;;;;;;;0.40;0.20;;;;;;;6.45;98.94;100651.19;5055229;28;20466;-67
2021/03/21 09:49:47;;;;;;;0.50;0.37;;;;;;;6.62;99.98;100649.00;5055254;28;20903;-67
2021/03/21 09:52:20;;;;;;;0.60;0.30;;;;;;;6.66;98.83;100649.25;5055322;28;20438;-67
2021/03/21 09:54:53;;;;;;;0.40;0.30;;;;;;;6.65;98.50;100661.91;5055577;28;20485;-67
2021/03/21 09:57:54;;;;;;;0.40;0.30;;;;;;;6.59;97.90;100665.69;5055211;28;20442;-67
2021/03/21 10:00:24;;;;;;;0.60;0.60;;;;;;;6.59;98.88;100668.38;5055409;28;20803;-67
2021/03/21 10:02:57;;;;;;;1.90;0.43;;;;;;;6.55;98.61;100669.97;5055237;28;20446;-68
2021/03/21 10:05:32;;;;;;;0.70;0.70;;;;;;;6.59;99.13;100676.44;5055285;28;20426;-67
2021/03/21 10:08:08;;;;;;;0.40;0.30;;;;;;;6.68;98.92;100679.38;5055026;28;20469;-67
2021/03/21 10:10:37;;;;;;;0.40;0.30;;;;;;;6.40;98.79;100680.78;5053324;28;21015;-67
2021/03/21 10:13:04;;;;;;;0.40;0.33;;;;;;;6.37;99.42;100682.13;5051902;28;20447;-67
2021/03/21 10:15:30;;;;;;;0.40;0.23;;;;;;;6.18;98.47;100676.47;5054716;28;20876;-67
2021/03/21 10:18:00;;;;;;;0.40;0.30;;;;;;;6.21;99.94;100681.34;5055197;28;20519;-67
2021/03/21 10:21:10;;;;;;;0.40;0.30;;;;;;;6.27;99.59;100691.00;5047558;28;20562;-67
2021/03/21 10:24:15;;;;;;;0.80;0.50;;;;;;;6.25;98.44;100695.06;5034848;28;20431;-67
2021/03/21 10:27:27;;;;;;;0.40;0.30;;;;;;;6.28;97.63;100692.59;5052638;28;20466;-67
2021/03/21 10:30:25;;;;;;;0.40;0.20;;;;;;;6.51;97.76;100688.59;5054643;28;20522;-67
2021/03/21 10:33:30;;;;;;;0.40;0.30;;;;;;;6.53;95.67;100693.69;5054457;28;20998;-67
2021/03/21 10:35:57;;;;;;;0.40;0.30;;;;;;;6.49;94.69;100714.13;5053968;28;20970;-67
2021/03/21 10:38:45;;;;;;;0.70;0.63;;;;;;;6.51;95.22;100704.72;5054657;28;20492;-67
2021/03/21 10:41:50;;;;;;;0.40;0.30;;;;;;;6.60;95.47;100718.44;5055693;28;20569;-67
2021/03/21 10:44:15;;;;;;;0.40;0.30;;;;;;;6.56;94.58;100707.41;5048753;28;20442;-66
2021/03/21 10:46:54;;;;;;;0.50;0.40;;;;;;;6.59;93.88;100730.25;5053627;28;20535;-66
2021/03/21 10:49:49;;;;;;;0.40;0.30;;;;;;;6.36;94.60;100728.94;5053704;28;20927;-67
2021/03/21 10:52:23;;;;;;;0.50;0.40;;;;;;;6.39;95.00;100730.28;5053307;28;20462;-67
2021/03/21 10:55:36;;;;;;;2.10;0.50;;;;;;;6.55;95.23;100730.03;5054393;28;20479;-67
2021/03/21 10:58:28;;;;;;;0.40;0.40;;;;;;;6.56;94.27;100725.44;5054029;28;20457;-68
2021/03/21 11:01:25;;;;;;;0.50;0.50;;;;;;;6.61;93.40;100741.59;5053726;28;20465;-67
2021/03/21 11:04:03;;;;;;;0.50;0.50;;;;;;;6.46;94.84;100730.81;5051978;28;20481;-67
2021/03/21 11:06:32;;;;;;;0.47;0.40;;;;;;;6.34;94.83;100738.38;5049153;28;20962;-67
2021/03/21 11:09:09;;;;;;;1.60;1.50;;;;;;;6.27;95.66;100744.00;5053333;28;20457;-67
2021/03/21 11:11:37;;;;;;;0.40;0.30;;;;;;;6.36;95.67;100741.59;5053460;28;21014;-67
2021/03/21 11:14:12;;;;;;;2.10;1.37;;;;;;;6.44;94.97;100749.13;5053820;28;20525;-67
2021/03/21 11:16:41;;;;;;;0.40;0.30;;;;;;;6.56;94.71;100749.66;5053462;28;20428;-67
2021/03/21 11:19:13;;;;;;;0.50;0.40;;;;;;;6.47;93.35;100757.47;5053665;28;20536;-67
2021/03/21 11:21:41;;;;;;;0.90;0.80;;;;;;;6.48;93.45;100760.97;5053594;28;20466;-67
2021/03/21 11:24:27;;;;;;;0.73;0.53;;;;;;;6.32;93.41;100760.13;5053614;28;20940;-67
2021/03/21 11:26:58;;;;;;;0.50;0.40;;;;;;;6.43;94.00;100769.03;5053415;28;20466;-67
2021/03/21 11:29:28;;;;;;;0.40;0.30;;;;;;;6.43;93.93;100758.28;5053874;28;20471;-67
2021/03/21 11:31:59;;;;;;;0.70;0.40;;;;;;;6.49;94.46;100763.38;5053120;28;20481;-67
2021/03/21 11:34:31;;;;;;;1.30;0.90;;;;;;;6.63;94.04;100752.88;5053720;28;20500;-68
2021/03/21 11:37:04;;;;;;;0.90;0.47;;;;;;;6.88;93.02;100759.31;5053511;28;20469;-67
2021/03/21 11:39:35;;;;;;;9.87;0.83;;;;;;;6.88;91.37;100760.13;5053317;28;20962;-68
2021/03/21 11:42:10;;;;;;;0.50;0.40;;;;;;;6.96;92.06;100748.00;5052826;28;20978;-67
2021/03/21 11:44:35;;;;;;;2.60;1.07;;;;;;;6.94;91.48;100747.44;5053308;28;20441;-67
2021/03/21 11:47:12;;;;;;;1.00;0.70;;;;;;;7.04;89.45;100747.44;5053421;28;20482;-67
2021/03/21 11:49:39;;;;;;;1.33;1.27;;;;;;;7.13;90.02;100751.19;5052987;28;20488;-66
2021/03/21 11:52:06;;;;;;;0.50;0.40;;;;;;;7.07;87.25;100752.25;5053179;28;20446;-66
2021/03/21 11:54:34;;;;;;;0.63;0.50;;;;;;;7.33;89.19;100745.72;5053127;28;20454;-66
2021/03/21 11:57:21;;;;;;;14.87;1.40;;;;;;;7.60;87.11;100733.75;5052332;28;20535;-66
2021/03/21 11:59:53;;;;;;;0.90;0.70;;;;;;;7.86;86.23;100744.41;5040235;28;20808;-65
2021/03/21 12:02:28;;;;;;;5.50;1.13;;;;;;;8.05;83.57;100735.34;5053264;28;20422;-66
2021/03/21 12:04:58;;;;;;;0.50;0.47;;;;;;;8.22;82.85;100740.38;5051912;28;20438;-67
2021/03/21 12:07:26;;;;;;;0.93;0.43;;;;;;;8.22;81.34;100737.66;5033491;28;20486;-68
2021/03/21 12:09:53;;;;;;;1.67;1.03;;;;;;;8.57;80.50;100733.09;5045652;28;20446;-67